createdAt,value
2023-04-01T00:01:20.745Z,3.95
2023-04-01T00:03:49.279Z,4.75
2023-04-01T00:06:19.966Z,1.90
2023-04-01T00:08:48.531Z,1.20
2023-04-01T00:11:20.542Z,1.33
2023-04-01T00:13:49.696Z,1.08
2023-04-01T00:16:22.086Z,1.92
2023-04-01T00:18:52.238Z,2.00
2023-04-01T00:21:22.740Z,4.18
2023-04-01T00:23:51.571Z,2.05
2023-04-01T00:26:22.730Z,1.95
2023-04-01T00:28:52.058Z,2.30
2023-04-01T00:31:21.426Z,2.55
2023-04-01T00:33:50.457Z,0.55
2023-04-01T00:36:22.452Z,1.63
2023-04-01T00:38:52.583Z,2.28
2023-04-01T00:41:22.899Z,0.77
2023-04-01T00:43:53.150Z,1.98
2023-04-01T00:46:21.849Z,0.65
2023-04-01T00:48:53.273Z,1.50
2023-04-01T00:51:25.579Z,1.83
2023-04-01T00:53:58.073Z,1.23
2023-04-01T00:56:32.176Z,0.70
2023-04-01T00:59:04.133Z,3.22
2023-04-01T01:01:34.085Z,3.95
2023-04-01T01:04:03.205Z,1.35
2023-04-01T01:06:47.217Z,1.10
2023-04-01T01:09:37.633Z,1.75
2023-04-01T01:12:13.125Z,2.45
2023-04-01T01:14:51.587Z,1.08
2023-04-01T01:17:29.965Z,1.25
2023-04-01T01:20:35.342Z,1.38
2023-04-01T01:23:23.842Z,4.88
2023-04-01T01:26:07.296Z,2.75
2023-04-01T01:28:50.165Z,2.17
2023-04-01T01:31:25.152Z,1.65
2023-04-01T01:34:05.885Z,0.50
2023-04-01T01:36:36.528Z,1.55
2023-04-01T01:39:09.887Z,0.30
2023-04-01T01:41:43.592Z,1.33
2023-04-01T01:44:16.226Z,0.88
2023-04-01T01:46:47.272Z,0.30
2023-04-01T01:49:17.019Z,0.30
2023-04-01T01:51:46.983Z,0.35
2023-04-01T01:54:17.214Z,0.20
2023-04-01T01:56:49.062Z,1.20
2023-04-01T01:59:19.612Z,1.00
2023-04-01T02:01:52.749Z,1.15
2023-04-01T02:04:21.761Z,1.67
2023-04-01T02:06:55.286Z,0.43
2023-04-01T02:09:24.349Z,0.20
2023-04-01T02:11:57.139Z,0.98
2023-04-01T02:14:28.539Z,1.88
2023-04-01T02:17:00.273Z,1.02
2023-04-01T02:19:33.588Z,0.50
2023-04-01T02:22:08.601Z,1.08
2023-04-01T02:24:39.470Z,1.20
2023-04-01T02:27:08.201Z,0.50
2023-04-01T02:29:36.864Z,1.23
2023-04-01T02:32:11.007Z,1.23
2023-04-01T02:34:40.089Z,1.45
2023-04-01T02:37:10.320Z,0.60
2023-04-01T02:39:39.809Z,0.73
2023-04-01T02:42:08.572Z,1.88
2023-04-01T02:44:37.378Z,1.27
2023-04-01T02:47:06.084Z,0.35
2023-04-01T02:49:34.611Z,0.60
2023-04-01T02:52:03.061Z,1.13
2023-04-01T02:54:33.046Z,1.95
2023-04-01T02:57:01.531Z,0.40
2023-04-01T02:59:29.979Z,1.65
2023-04-01T03:01:58.421Z,0.30
2023-04-01T03:04:26.991Z,1.33
2023-04-01T03:06:56.286Z,0.63
2023-04-01T03:09:24.746Z,1.40
2023-04-01T03:11:54.580Z,0.75
2023-04-01T03:14:23.252Z,1.67
2023-04-01T03:16:51.765Z,0.40
2023-04-01T03:19:20.368Z,1.05
2023-04-01T03:21:48.952Z,0.85
2023-04-01T03:24:17.271Z,0.70
2023-04-01T03:26:45.791Z,1.23
2023-04-01T03:29:16.561Z,0.75
2023-04-01T03:31:45.458Z,1.42
2023-04-01T03:34:13.905Z,1.20
2023-04-01T03:36:43.228Z,0.93
2023-04-01T03:39:11.664Z,0.50
2023-04-01T03:41:43.464Z,1.48
2023-04-01T03:44:11.880Z,0.88
2023-04-01T03:46:42.321Z,1.13
2023-04-01T03:49:12.685Z,0.80
2023-04-01T03:51:42.163Z,1.65
2023-04-01T03:54:11.114Z,1.95
2023-04-01T03:56:40.428Z,2.67
2023-04-01T03:59:09.860Z,2.80
2023-04-01T04:01:38.477Z,0.40
2023-04-01T04:04:09.143Z,0.60
2023-04-01T04:06:37.575Z,0.45
2023-04-01T04:09:06.022Z,1.38
2023-04-01T04:11:34.650Z,1.70
2023-04-01T04:14:03.760Z,1.48
2023-04-01T04:16:32.260Z,2.22
2023-04-01T04:19:04.098Z,0.80
2023-04-01T04:21:34.590Z,0.70
2023-04-01T04:24:03.264Z,0.88
2023-04-01T04:26:48.504Z,1.20
2023-04-01T04:29:16.954Z,1.25
2023-04-01T04:31:47.058Z,1.15
2023-04-01T04:34:15.551Z,1.17
2023-04-01T04:36:45.317Z,1.10
2023-04-01T04:39:14.145Z,1.33
2023-04-01T04:41:44.206Z,5.03
2023-04-01T04:44:12.572Z,3.03
2023-04-01T04:46:41.356Z,2.33
2023-04-01T04:49:15.796Z,2.38
2023-04-01T04:51:45.957Z,1.50
2023-04-01T04:54:16.657Z,2.15
2023-04-01T04:56:55.731Z,2.35
2023-04-01T04:59:25.996Z,3.05
2023-04-01T05:02:16.431Z,2.42
2023-04-01T05:04:44.851Z,1.92
2023-04-01T05:07:14.591Z,2.30
2023-04-01T05:09:43.095Z,2.30
2023-04-01T05:12:13.801Z,3.22
2023-04-01T05:15:02.495Z,2.30
2023-04-01T05:17:31.501Z,3.10
2023-04-01T05:20:00.368Z,4.50
2023-04-01T05:22:30.899Z,5.07
2023-04-01T05:24:59.368Z,6.43
2023-04-01T05:27:28.056Z,2.67
2023-04-01T05:29:56.928Z,6.38
2023-04-01T05:32:44.032Z,3.88
2023-04-01T05:35:12.781Z,7.20
2023-04-01T05:37:42.701Z,6.10
2023-04-01T05:40:12.300Z,5.20
2023-04-01T05:42:40.739Z,5.88
2023-04-01T05:45:09.977Z,4.70
2023-04-01T05:48:10.557Z,5.63
2023-04-01T05:50:42.424Z,5.00
2023-04-01T05:53:13.555Z,4.45
2023-04-01T05:55:44.554Z,5.07
2023-04-01T05:58:13.339Z,4.68
2023-04-01T06:00:45.522Z,5.25
2023-04-01T06:03:14.878Z,4.07
2023-04-01T06:05:45.721Z,5.15
2023-04-01T06:08:20.461Z,4.22
2023-04-01T06:11:02.990Z,3.90
2023-04-01T06:13:45.300Z,4.28
2023-04-01T06:16:24.214Z,5.80
2023-04-01T06:19:12.938Z,5.32
2023-04-01T06:22:07.013Z,5.72
2023-04-01T06:24:54.983Z,5.38
2023-04-01T06:27:38.623Z,4.22
2023-04-01T06:30:27.037Z,6.00
2023-04-01T06:33:10.970Z,3.83
2023-04-01T06:35:59.004Z,2.75
2023-04-01T06:38:41.617Z,3.72
2023-04-01T06:41:30.589Z,3.10
2023-04-01T06:44:08.743Z,3.78
2023-04-01T06:47:29.999Z,2.88
2023-04-01T06:50:24.950Z,2.55
2023-04-01T06:53:18.529Z,2.42
2023-04-01T06:56:09.457Z,3.03
2023-04-01T06:58:56.007Z,3.42
2023-04-01T07:01:28.366Z,3.63
2023-04-01T07:04:01.465Z,2.42
2023-04-01T07:06:34.275Z,2.10
2023-04-01T07:09:08.381Z,3.05
2023-04-01T07:12:04.362Z,2.65
2023-04-01T07:15:00.177Z,3.10
2023-04-01T07:17:33.866Z,2.70
2023-04-01T07:20:07.625Z,2.83
2023-04-01T07:22:41.109Z,1.38
2023-04-01T07:25:27.792Z,1.90
2023-04-01T07:28:19.130Z,1.88
2023-04-01T07:31:09.440Z,1.83
2023-04-01T07:33:44.458Z,1.83
2023-04-01T07:36:16.855Z,3.33
2023-04-01T07:38:56.322Z,1.77
2023-04-01T07:41:49.144Z,1.33
2023-04-01T07:44:26.732Z,1.70
2023-04-01T07:47:06.967Z,1.75
2023-04-01T07:49:46.115Z,1.33
2023-04-01T07:52:20.998Z,1.55
2023-04-01T07:55:00.629Z,1.45
2023-04-01T07:57:36.527Z,1.17
2023-04-01T08:00:24.405Z,1.33
2023-04-01T08:03:27.355Z,2.40
2023-04-01T08:06:01.008Z,1.02
2023-04-01T08:08:45.687Z,1.58
2023-04-01T08:11:49.221Z,1.63
2023-04-01T08:14:49.346Z,1.33
2023-04-01T08:17:46.928Z,1.55
2023-04-01T08:35:45.490Z,0.70
2023-04-01T08:38:34.216Z,0.82
2023-04-01T08:41:44.738Z,3.47
2023-04-01T08:45:21.880Z,1.52
2023-04-01T08:48:51.691Z,2.67
2023-04-01T08:52:05.684Z,2.08
2023-04-01T08:54:59.054Z,1.75
2023-04-01T08:57:58.686Z,1.90
2023-04-01T09:00:51.994Z,1.50
2023-04-01T09:04:09.737Z,1.25
2023-04-01T09:07:00.474Z,1.40
2023-04-01T09:10:02.663Z,3.88
2023-04-01T09:13:26.456Z,3.08
2023-04-01T10:21:58.652Z,1.52
2023-04-01T10:25:46.186Z,0.85
2023-04-01T10:51:37.369Z,2.42
2023-04-01T11:44:44.812Z,1.00
2023-04-01T11:47:44.106Z,1.35
2023-04-01T11:50:52.306Z,2.03
2023-04-01T11:54:18.022Z,1.85
2023-04-01T11:57:22.957Z,1.30
2023-04-01T12:00:25.286Z,1.13
2023-04-01T12:03:21.033Z,1.45
2023-04-01T12:06:07.535Z,1.77
2023-04-01T12:08:59.338Z,1.15
2023-04-01T12:12:18.731Z,1.05
2023-04-01T12:15:01.243Z,1.20
2023-04-01T12:37:40.575Z,1.92
2023-04-01T12:40:33.985Z,1.50
2023-04-01T12:43:22.502Z,2.00
2023-04-01T12:46:06.068Z,3.17
2023-04-01T12:49:09.071Z,2.83
2023-04-01T12:52:17.247Z,2.80
2023-04-01T12:55:39.768Z,1.65
2023-04-01T12:58:52.723Z,3.03
2023-04-01T13:01:42.956Z,1.67
2023-04-01T13:04:57.138Z,3.60
2023-04-01T13:07:52.135Z,1.52
2023-04-01T13:10:46.845Z,3.30
2023-04-01T13:13:56.718Z,1.90
2023-04-01T13:17:07.800Z,1.80
2023-04-01T13:20:02.005Z,1.77
2023-04-01T13:22:47.755Z,1.83
2023-04-01T13:25:29.268Z,1.58
2023-04-01T13:28:09.022Z,1.50
2023-04-01T13:30:46.187Z,1.90
2023-04-01T13:33:28.422Z,1.40
2023-04-01T13:36:10.517Z,1.83
2023-04-01T13:38:59.955Z,1.60
2023-04-01T13:41:46.083Z,1.48
2023-04-01T13:44:21.559Z,1.30
2023-04-01T13:47:06.848Z,1.52
2023-04-01T13:50:30.752Z,1.00
2023-04-01T15:23:28.001Z,2.17
2023-04-01T15:26:19.009Z,2.75
2023-04-01T15:28:59.676Z,2.95
2023-04-01T15:31:33.423Z,3.20
2023-04-01T15:34:20.683Z,2.22
2023-04-01T15:36:55.500Z,2.08
2023-04-01T15:39:40.337Z,1.27
2023-04-01T15:42:34.713Z,1.25
2023-04-01T15:45:18.816Z,1.30
2023-04-01T15:48:01.270Z,1.75
2023-04-01T15:50:55.035Z,1.85
2023-04-01T15:54:10.487Z,1.52
2023-04-01T15:57:37.528Z,2.22
2023-04-01T16:00:24.857Z,2.25
2023-04-01T16:03:12.144Z,2.22
2023-04-01T16:05:58.383Z,1.88
2023-04-01T16:11:41.808Z,3.08
2023-04-01T16:14:26.295Z,1.83
2023-04-01T16:17:14.228Z,1.60
2023-04-01T16:19:52.154Z,1.83
2023-04-01T16:22:27.161Z,2.10
2023-04-01T16:25:16.200Z,2.28
2023-04-01T16:27:54.768Z,2.40
2023-04-01T16:30:39.281Z,2.33
2023-04-01T16:33:16.055Z,1.90
2023-04-01T16:35:52.726Z,3.45
2023-04-01T16:38:28.016Z,2.30
2023-04-01T16:41:13.777Z,2.03
2023-04-01T16:43:47.685Z,4.15
2023-04-01T16:46:38.106Z,3.00
2023-04-01T16:49:25.310Z,3.03
2023-04-01T16:51:56.989Z,2.78
2023-04-01T16:54:33.850Z,3.10
2023-04-01T16:57:17.276Z,3.67
2023-04-01T16:59:50.118Z,2.92
2023-04-01T17:02:26.190Z,4.40
2023-04-01T17:05:02.553Z,3.20
2023-04-01T17:07:43.166Z,3.67
2023-04-01T17:10:36.307Z,4.28
2023-04-01T17:13:37.481Z,2.90
2023-04-01T17:16:27.519Z,2.80
2023-04-01T17:19:08.371Z,3.35
2023-04-01T17:21:53.873Z,4.30
2023-04-01T17:24:39.941Z,3.72
2023-04-01T17:30:06.095Z,3.65
2023-04-01T17:32:57.750Z,4.03
2023-04-01T17:35:35.661Z,4.78
2023-04-01T17:38:15.304Z,4.65
2023-04-01T17:40:59.705Z,3.88
2023-04-01T17:43:39.969Z,3.53
2023-04-01T17:46:24.914Z,3.25
2023-04-01T17:49:01.102Z,2.85
2023-04-01T17:51:39.248Z,2.55
2023-04-01T17:54:23.841Z,2.53
2023-04-01T17:57:09.063Z,2.53
2023-04-01T17:59:40.247Z,2.85
2023-04-01T18:02:26.583Z,3.20
2023-04-01T18:05:21.876Z,2.03
2023-04-01T18:08:15.627Z,2.30
2023-04-01T18:10:59.655Z,3.08
2023-04-01T18:13:50.201Z,3.17
2023-04-01T18:17:33.236Z,2.38
2023-04-01T18:20:22.203Z,2.65
2023-04-01T18:22:59.317Z,2.97
2023-04-01T18:25:37.832Z,3.22
2023-04-01T18:28:28.610Z,2.90
2023-04-01T18:31:06.818Z,2.72
2023-04-01T18:33:44.963Z,2.60
2023-04-01T18:36:21.292Z,2.22
2023-04-01T18:38:54.261Z,3.50
2023-04-01T18:41:30.998Z,2.67
2023-04-01T18:44:14.580Z,2.80
2023-04-01T18:46:52.439Z,2.60
2023-04-01T18:49:27.360Z,2.97
2023-04-01T18:51:59.709Z,4.93
2023-04-01T18:54:33.246Z,2.70
2023-04-01T18:57:21.956Z,4.80
2023-04-01T18:59:55.524Z,2.42
2023-04-01T19:02:34.741Z,2.30
2023-04-01T19:05:07.952Z,2.83
2023-04-01T19:07:46.930Z,3.88
2023-04-01T19:10:20.197Z,3.40
2023-04-01T19:13:09.049Z,2.80
2023-04-01T19:15:46.052Z,3.33
2023-04-01T19:18:40.845Z,3.67
2023-04-01T19:21:16.316Z,5.72
2023-04-01T19:24:26.206Z,4.55
2023-04-01T19:27:00.959Z,4.82
2023-04-01T19:29:56.791Z,5.28
2023-04-01T19:32:37.322Z,5.10
2023-04-01T19:35:21.876Z,3.72
2023-04-01T19:37:57.055Z,3.03
2023-04-01T19:40:51.765Z,3.88
2023-04-01T19:43:49.196Z,5.28
2023-04-01T19:46:28.316Z,3.92
2023-04-01T19:49:11.734Z,4.45
2023-04-01T19:51:49.242Z,4.30
2023-04-01T19:54:33.429Z,4.70
2023-04-01T19:57:12.574Z,4.25
2023-04-01T19:59:49.162Z,3.97
2023-04-01T20:02:35.542Z,3.55
2023-04-01T20:05:27.898Z,3.80
2023-04-01T20:08:02.237Z,3.60
2023-04-01T20:10:40.734Z,4.28
2023-04-01T20:13:21.454Z,4.20
2023-04-01T20:16:02.149Z,4.13
2023-04-01T20:18:41.480Z,5.35
2023-04-01T20:21:27.007Z,5.03
2023-04-01T20:24:00.301Z,3.60
2023-04-01T20:26:34.094Z,3.72
2023-04-01T20:29:37.375Z,4.80
2023-04-01T20:32:21.444Z,3.85
2023-04-01T20:35:35.389Z,3.78
2023-04-01T20:38:25.323Z,4.80
2023-04-01T20:41:04.779Z,4.50
2023-04-01T20:43:44.980Z,4.35
2023-04-01T20:46:21.365Z,5.03
2023-04-01T20:49:31.551Z,4.45
2023-04-01T20:52:10.227Z,5.38
2023-04-01T20:55:08.340Z,5.97
2023-04-01T20:57:43.817Z,4.28
2023-04-01T21:00:32.028Z,5.47
2023-04-01T21:03:25.849Z,5.18
2023-04-01T21:06:33.907Z,4.93
2023-04-01T21:09:18.353Z,5.07
2023-04-01T21:11:55.705Z,4.70
2023-04-01T21:14:48.440Z,5.50
2023-04-01T21:17:24.762Z,4.93
2023-04-01T21:20:07.529Z,5.32
2023-04-01T21:22:50.010Z,5.22
2023-04-01T21:25:39.339Z,5.07
2023-04-01T21:28:22.749Z,6.53
2023-04-01T21:31:05.338Z,5.43
2023-04-01T21:34:30.554Z,5.82
2023-04-01T21:37:27.614Z,6.18
2023-04-01T21:40:21.082Z,7.05
2023-04-01T21:43:00.012Z,5.40
2023-04-01T21:45:46.350Z,6.25
2023-04-01T21:48:47.259Z,6.32
2023-04-01T21:51:55.746Z,6.82
2023-04-01T21:55:03.205Z,7.13
2023-04-01T21:58:13.811Z,5.82
2023-04-01T22:00:50.594Z,3.85
2023-04-01T22:03:42.277Z,4.50
2023-04-01T22:06:24.444Z,4.15
2023-04-01T22:09:09.188Z,5.10
2023-04-01T22:11:50.714Z,6.55
2023-04-01T22:14:27.358Z,6.93
2023-04-01T22:16:59.068Z,6.47
2023-04-01T22:19:38.187Z,6.30
2023-04-01T22:22:13.686Z,7.05
2023-04-01T22:27:27.451Z,7.45
2023-04-01T22:30:12.345Z,7.90
2023-04-01T22:32:46.191Z,7.20
2023-04-01T22:35:26.036Z,7.72
2023-04-01T22:38:03.788Z,8.13
2023-04-01T22:40:39.043Z,6.22
2023-04-01T22:43:10.892Z,6.13
2023-04-01T22:46:19.210Z,4.68
2023-04-01T22:48:52.917Z,4.47
2023-04-01T22:51:26.324Z,4.18
2023-04-01T22:54:06.975Z,4.15
2023-04-01T22:56:40.648Z,4.05
2023-04-01T22:59:16.981Z,6.13
2023-04-01T23:01:50.473Z,5.53
2023-04-01T23:04:25.892Z,7.50
2023-04-01T23:06:58.743Z,9.48
2023-04-01T23:09:30.390Z,10.85
2023-04-01T23:12:01.910Z,10.77
2023-04-01T23:14:41.750Z,12.15
2023-04-01T23:17:44.495Z,11.48
2023-04-01T23:20:32.294Z,13.15
2023-04-01T23:23:14.230Z,13.43
2023-04-01T23:25:53.228Z,14.80
2023-04-01T23:28:47.945Z,10.52
2023-04-01T23:31:38.478Z,9.88
2023-04-01T23:34:32.170Z,7.63
2023-04-01T23:37:05.960Z,9.30
2023-04-01T23:39:38.143Z,8.45
2023-04-01T23:42:10.111Z,6.68
2023-04-01T23:44:39.267Z,6.85
2023-04-01T23:47:11.806Z,6.43
2023-04-01T23:49:48.846Z,5.88
2023-04-01T23:52:23.238Z,6.70
2023-04-01T23:54:56.209Z,6.25
2023-04-01T23:57:28.864Z,8.05
